<?xml version="1.0" encoding="UTF-8" standalone="no" ?>
<gpx xmlns="http://www.topografix.com/GPX/1/1" xmlns:xsi="http://www.w3.org/2001/XMLSchema-instance" xsi:schemaLocation="http://www.topografix.com/GPX/1/1 http://www.topografix.com/GPX/1/1/gpx.xsd" version="1.1" creator="VisuGPX - https://www.visugpx.com">
  <metadata>
    <name>Ballade Muttenz - Gellert</name>
    <desc><![CDATA[Ballade de Muttenz - Gellert]]></desc>
  </metadata>
  <trk>
    <name><![CDATA[Muttenz - Gellert]]></name>
    <trkseg>
      <trkpt lat="47.53723" lon="7.6607">
        <ele>267.8</ele>
        <time>2011-06-26T15:06:41Z</time>
      </trkpt>
      <trkpt lat="47.53747" lon="7.66013">
        <ele>269</ele>
        <time>2011-06-26T15:07:59Z</time>
      </trkpt>
      <trkpt lat="47.53751" lon="7.65949">
        <ele>270</ele>
        <time>2011-06-26T15:08:42Z</time>
      </trkpt>
      <trkpt lat="47.53768" lon="7.65882">
        <ele>270.8</ele>
        <time>2011-06-26T15:09:12Z</time>
      </trkpt>
      <trkpt lat="47.53794" lon="7.65831">
        <ele>271.4</ele>
        <time>2011-06-26T15:09:45Z</time>
      </trkpt>
      <trkpt lat="47.53832" lon="7.65791">
        <ele>271.9</ele>
        <time>2011-06-26T15:10:48Z</time>
      </trkpt>
      <trkpt lat="47.53867" lon="7.65749">
        <ele>273.5</ele>
        <time>2011-06-26T15:11:50Z</time>
      </trkpt>
      <trkpt lat="47.53894" lon="7.65694">
        <ele>275.1</ele>
        <time>2011-06-26T15:12:41Z</time>
      </trkpt>
      <trkpt lat="47.53904" lon="7.65685">
        <ele>276.1</ele>
        <time>2011-06-26T15:12:55Z</time>
      </trkpt>
      <trkpt lat="47.53918" lon="7.65675">
        <ele>276.6</ele>
        <time>2011-06-26T15:13:20Z</time>
      </trkpt>
      <trkpt lat="47.53935" lon="7.6567">
        <ele>277.2</ele>
        <time>2011-06-26T15:15:32Z</time>
      </trkpt>
      <trkpt lat="47.5395" lon="7.65661">
        <ele>277.3</ele>
        <time>2011-06-26T15:16:07Z</time>
      </trkpt>
      <trkpt lat="47.53986" lon="7.65617">
        <ele>277.4</ele>
        <time>2011-06-26T15:17:20Z</time>
      </trkpt>
      <trkpt lat="47.54026" lon="7.65592">
        <ele>277.4</ele>
        <time>2011-06-26T15:17:53Z</time>
      </trkpt>
      <trkpt lat="47.54068" lon="7.65606">
        <ele>277.4</ele>
        <time>2011-06-26T15:18:49Z</time>
      </trkpt>
      <trkpt lat="47.54081" lon="7.65615">
        <ele>277.4</ele>
        <time>2011-06-26T15:19:21Z</time>
      </trkpt>
      <trkpt lat="47.54102" lon="7.65611">
        <ele>276.1</ele>
        <time>2011-06-26T15:19:43Z</time>
      </trkpt>
      <trkpt lat="47.54144" lon="7.65596">
        <ele>275.7</ele>
        <time>2011-06-26T15:20:29Z</time>
      </trkpt>
      <trkpt lat="47.54158" lon="7.6559">
        <ele>275.2</ele>
        <time>2011-06-26T15:20:44Z</time>
      </trkpt>
      <trkpt lat="47.54174" lon="7.65586">
        <ele>274.1</ele>
        <time>2011-06-26T15:21:04Z</time>
      </trkpt>
      <trkpt lat="47.54204" lon="7.65576">
        <ele>273.2</ele>
        <time>2011-06-26T15:21:53Z</time>
      </trkpt>
      <trkpt lat="47.54216" lon="7.65559">
        <ele>273.1</ele>
        <time>2011-06-26T15:22:21Z</time>
      </trkpt>
      <trkpt lat="47.54255" lon="7.65531">
        <ele>271.5</ele>
        <time>2011-06-26T15:23:20Z</time>
      </trkpt>
      <trkpt lat="47.54281" lon="7.65465">
        <ele>271.1</ele>
        <time>2011-06-26T15:24:03Z</time>
      </trkpt>
      <trkpt lat="47.54305" lon="7.65412">
        <ele>271.5</ele>
        <time>2011-06-26T15:24:52Z</time>
      </trkpt>
      <trkpt lat="47.54331" lon="7.65377">
        <ele>270.8</ele>
        <time>2011-06-26T15:25:21Z</time>
      </trkpt>
      <trkpt lat="47.54345" lon="7.65356">
        <ele>271</ele>
        <time>2011-06-26T15:26:00Z</time>
      </trkpt>
      <trkpt lat="47.54379" lon="7.65312">
        <ele>270.8</ele>
        <time>2011-06-26T15:26:50Z</time>
      </trkpt>
      <trkpt lat="47.54402" lon="7.65257">
        <ele>270.7</ele>
        <time>2011-06-26T15:27:20Z</time>
      </trkpt>
      <trkpt lat="47.54456" lon="7.65201">
        <ele>270.6</ele>
        <time>2011-06-26T15:28:53Z</time>
      </trkpt>
      <trkpt lat="47.54491" lon="7.65154">
        <ele>270.7</ele>
        <time>2011-06-26T15:29:37Z</time>
      </trkpt>
      <trkpt lat="47.54518" lon="7.65105">
        <ele>271.5</ele>
        <time>2011-06-26T15:30:17Z</time>
      </trkpt>
      <trkpt lat="47.5455" lon="7.65059">
        <ele>270.4</ele>
        <time>2011-06-26T15:31:11Z</time>
      </trkpt>
      <trkpt lat="47.5459" lon="7.65015">
        <ele>270.7</ele>
        <time>2011-06-26T15:32:01Z</time>
      </trkpt>
      <trkpt lat="47.5462" lon="7.64969">
        <ele>269.8</ele>
        <time>2011-06-26T15:32:40Z</time>
      </trkpt>
      <trkpt lat="47.54654" lon="7.64928">
        <ele>268.8</ele>
        <time>2011-06-26T15:33:59Z</time>
      </trkpt>
      <trkpt lat="47.54679" lon="7.64873">
        <ele>269</ele>
        <time>2011-06-26T15:34:37Z</time>
      </trkpt>
      <trkpt lat="47.54715" lon="7.64833">
        <ele>268.9</ele>
        <time>2011-06-26T15:36:04Z</time>
      </trkpt>
      <trkpt lat="47.54732" lon="7.64824">
        <ele>270.1</ele>
        <time>2011-06-26T15:36:20Z</time>
      </trkpt>
      <trkpt lat="47.54743" lon="7.64808">
        <ele>270.3</ele>
        <time>2011-06-26T15:36:35Z</time>
      </trkpt>
      <trkpt lat="47.54752" lon="7.64787">
        <ele>270.5</ele>
        <time>2011-06-26T15:36:51Z</time>
      </trkpt>
      <trkpt lat="47.54775" lon="7.64734">
        <ele>271</ele>
        <time>2011-06-26T15:37:42Z</time>
      </trkpt>
      <trkpt lat="47.54787" lon="7.64717">
        <ele>269.9</ele>
        <time>2011-06-26T15:38:07Z</time>
      </trkpt>
      <trkpt lat="47.54801" lon="7.64704">
        <ele>270</ele>
        <time>2011-06-26T15:38:39Z</time>
      </trkpt>
      <trkpt lat="47.54809" lon="7.64698">
        <ele>270.1</ele>
        <time>2011-06-26T15:38:56Z</time>
      </trkpt>
      <trkpt lat="47.54821" lon="7.64684">
        <ele>270.2</ele>
        <time>2011-06-26T15:39:39Z</time>
      </trkpt>
      <trkpt lat="47.54857" lon="7.64644">
        <ele>269.5</ele>
        <time>2011-06-26T15:40:19Z</time>
      </trkpt>
      <trkpt lat="47.54884" lon="7.64595">
        <ele>268.2</ele>
        <time>2011-06-26T15:41:18Z</time>
      </trkpt>
      <trkpt lat="47.54885" lon="7.64626">
        <ele>266.5</ele>
        <time>2011-06-26T15:42:05Z</time>
      </trkpt>
      <trkpt lat="47.549" lon="7.64617">
        <ele>265.1</ele>
        <time>2011-06-26T15:43:03Z</time>
      </trkpt>
      <trkpt lat="47.54939" lon="7.64586">
        <ele>263.7</ele>
        <time>2011-06-26T15:43:49Z</time>
      </trkpt>
      <trkpt lat="47.54947" lon="7.64576">
        <ele>262.4</ele>
        <time>2011-06-26T15:44:01Z</time>
      </trkpt>
      <trkpt lat="47.5496" lon="7.64562">
        <ele>261</ele>
        <time>2011-06-26T15:44:22Z</time>
      </trkpt>
      <trkpt lat="47.54973" lon="7.64547">
        <ele>261.2</ele>
        <time>2011-06-26T15:44:36Z</time>
      </trkpt>
      <trkpt lat="47.54982" lon="7.64528">
        <ele>261.4</ele>
        <time>2011-06-26T15:45:01Z</time>
      </trkpt>
      <trkpt lat="47.55001" lon="7.64492">
        <ele>261.5</ele>
        <time>2011-06-26T15:45:47Z</time>
      </trkpt>
      <trkpt lat="47.55013" lon="7.64477">
        <ele>261.3</ele>
        <time>2011-06-26T15:46:04Z</time>
      </trkpt>
      <trkpt lat="47.55022" lon="7.64472">
        <ele>261</ele>
        <time>2011-06-26T15:46:35Z</time>
      </trkpt>
      <trkpt lat="47.55027" lon="7.64451">
        <ele>261.5</ele>
        <time>2011-06-26T15:47:03Z</time>
      </trkpt>
      <trkpt lat="47.55034" lon="7.64427">
        <ele>261.6</ele>
        <time>2011-06-26T15:47:28Z</time>
      </trkpt>
      <trkpt lat="47.55042" lon="7.64408">
        <ele>262.1</ele>
        <time>2011-06-26T15:47:52Z</time>
      </trkpt>
      <trkpt lat="47.55074" lon="7.64362">
        <ele>262.5</ele>
        <time>2011-06-26T15:48:41Z</time>
      </trkpt>
      <trkpt lat="47.55078" lon="7.64348">
        <ele>263.6</ele>
        <time>2011-06-26T15:48:59Z</time>
      </trkpt>
      <trkpt lat="47.55093" lon="7.64329">
        <ele>264.7</ele>
        <time>2011-06-26T15:49:50Z</time>
      </trkpt>
      <trkpt lat="47.55089" lon="7.64317">
        <ele>265.5</ele>
        <time>2011-06-26T15:50:08Z</time>
      </trkpt>
      <trkpt lat="47.55061" lon="7.64292">
        <ele>265.7</ele>
        <time>2011-06-26T15:50:54Z</time>
      </trkpt>
      <trkpt lat="47.55049" lon="7.6427">
        <ele>265.7</ele>
        <time>2011-06-26T15:51:23Z</time>
      </trkpt>
      <trkpt lat="47.55041" lon="7.6425">
        <ele>266.2</ele>
        <time>2011-06-26T15:51:50Z</time>
      </trkpt>
      <trkpt lat="47.55031" lon="7.64232">
        <ele>266.9</ele>
        <time>2011-06-26T15:52:20Z</time>
      </trkpt>
      <trkpt lat="47.5503" lon="7.64208">
        <ele>267.7</ele>
        <time>2011-06-26T15:52:39Z</time>
      </trkpt>
      <trkpt lat="47.55051" lon="7.64166">
        <ele>268.8</ele>
        <time>2011-06-26T15:55:07Z</time>
      </trkpt>
      <trkpt lat="47.55025" lon="7.64175">
        <ele>275.2</ele>
        <time>2011-06-26T15:58:47Z</time>
      </trkpt>
      <trkpt lat="47.55025" lon="7.64157">
        <ele>275.4</ele>
        <time>2011-06-26T15:59:31Z</time>
      </trkpt>
      <trkpt lat="47.55019" lon="7.64134">
        <ele>275.6</ele>
        <time>2011-06-26T16:00:14Z</time>
      </trkpt>
      <trkpt lat="47.55019" lon="7.6412">
        <ele>275.3</ele>
        <time>2011-06-26T16:00:26Z</time>
      </trkpt>
      <trkpt lat="47.5502" lon="7.64097">
        <ele>275.3</ele>
        <time>2011-06-26T16:00:40Z</time>
      </trkpt>
      <trkpt lat="47.5503" lon="7.64035">
        <ele>275.3</ele>
        <time>2011-06-26T16:01:29Z</time>
      </trkpt>
      <trkpt lat="47.55028" lon="7.64018">
        <ele>275.1</ele>
        <time>2011-06-26T16:01:48Z</time>
      </trkpt>
      <trkpt lat="47.5503" lon="7.63993">
        <ele>274.9</ele>
        <time>2011-06-26T16:02:02Z</time>
      </trkpt>
      <trkpt lat="47.5504" lon="7.63898">
        <ele>274.7</ele>
        <time>2011-06-26T16:03:12Z</time>
      </trkpt>
      <trkpt lat="47.55043" lon="7.63842">
        <ele>273.7</ele>
        <time>2011-06-26T16:03:47Z</time>
      </trkpt>
      <trkpt lat="47.55038" lon="7.6382">
        <ele>272.7</ele>
        <time>2011-06-26T16:04:08Z</time>
      </trkpt>
      <trkpt lat="47.55028" lon="7.63782">
        <ele>271.6</ele>
        <time>2011-06-26T16:04:29Z</time>
      </trkpt>
      <trkpt lat="47.55022" lon="7.63752">
        <ele>270.5</ele>
        <time>2011-06-26T16:04:52Z</time>
      </trkpt>
      <trkpt lat="47.5502" lon="7.63727">
        <ele>269.5</ele>
        <time>2011-06-26T16:05:13Z</time>
      </trkpt>
      <trkpt lat="47.55011" lon="7.63704">
        <ele>269.8</ele>
        <time>2011-06-26T16:05:34Z</time>
      </trkpt>
      <trkpt lat="47.55003" lon="7.63676">
        <ele>269.4</ele>
        <time>2011-06-26T16:05:51Z</time>
      </trkpt>
      <trkpt lat="47.54993" lon="7.63663">
        <ele>268.9</ele>
        <time>2011-06-26T16:06:38Z</time>
      </trkpt>
      <trkpt lat="47.54976" lon="7.63667">
        <ele>268.3</ele>
        <time>2011-06-26T16:06:53Z</time>
      </trkpt>
      <trkpt lat="47.54963" lon="7.63671">
        <ele>268.3</ele>
        <time>2011-06-26T16:07:18Z</time>
      </trkpt>
      <trkpt lat="47.54949" lon="7.63659">
        <ele>268.4</ele>
        <time>2011-06-26T16:07:53Z</time>
      </trkpt>
      <trkpt lat="47.54947" lon="7.63636">
        <ele>269.2</ele>
        <time>2011-06-26T16:08:25Z</time>
      </trkpt>
      <trkpt lat="47.54949" lon="7.63574">
        <ele>270.2</ele>
        <time>2011-06-26T16:10:39Z</time>
      </trkpt>
      <trkpt lat="47.54961" lon="7.63555">
        <ele>271</ele>
        <time>2011-06-26T16:11:07Z</time>
      </trkpt>
      <trkpt lat="47.54965" lon="7.63491">
        <ele>271.5</ele>
        <time>2011-06-26T16:12:02Z</time>
      </trkpt>
      <trkpt lat="47.5495" lon="7.63402">
        <ele>272.1</ele>
        <time>2011-06-26T16:12:43Z</time>
      </trkpt>
      <trkpt lat="47.54957" lon="7.63321">
        <ele>271.9</ele>
        <time>2011-06-26T16:14:11Z</time>
      </trkpt>
      <trkpt lat="47.54961" lon="7.63235">
        <ele>272.4</ele>
        <time>2011-06-26T16:14:53Z</time>
      </trkpt>
      <trkpt lat="47.5497" lon="7.63171">
        <ele>272.6</ele>
        <time>2011-06-26T16:16:31Z</time>
      </trkpt>
      <trkpt lat="47.54938" lon="7.63127">
        <ele>273.4</ele>
        <time>2011-06-26T16:17:24Z</time>
      </trkpt>
      <trkpt lat="47.54894" lon="7.63103">
        <ele>273.5</ele>
        <time>2011-06-26T16:18:08Z</time>
      </trkpt>
      <trkpt lat="47.54858" lon="7.63069">
        <ele>273.5</ele>
        <time>2011-06-26T16:18:50Z</time>
      </trkpt>
      <trkpt lat="47.54854" lon="7.6305">
        <ele>273.4</ele>
        <time>2011-06-26T16:19:20Z</time>
      </trkpt>
      <trkpt lat="47.54846" lon="7.63029">
        <ele>273.1</ele>
        <time>2011-06-26T16:19:36Z</time>
      </trkpt>
      <trkpt lat="47.54805" lon="7.63015">
        <ele>273</ele>
        <time>2011-06-26T16:20:31Z</time>
      </trkpt>
      <trkpt lat="47.54805" lon="7.63015">
        <ele>273.3</ele>
        <time>2011-06-26T16:21:14Z</time>
      </trkpt>
      <trkpt lat="47.5479" lon="7.63027">
        <ele>273.2</ele>
        <time>2011-06-26T16:22:16Z</time>
      </trkpt>
      <trkpt lat="47.54822" lon="7.63021">
        <ele>272.9</ele>
        <time>2011-06-26T16:23:28Z</time>
      </trkpt>
      <trkpt lat="47.54833" lon="7.63002">
        <ele>272.6</ele>
        <time>2011-06-26T16:23:42Z</time>
      </trkpt>
      <trkpt lat="47.54838" lon="7.62979">
        <ele>272.4</ele>
        <time>2011-06-26T16:23:59Z</time>
      </trkpt>
      <trkpt lat="47.54841" lon="7.62956">
        <ele>272.3</ele>
        <time>2011-06-26T16:24:15Z</time>
      </trkpt>
      <trkpt lat="47.54849" lon="7.62936">
        <ele>272.2</ele>
        <time>2011-06-26T16:24:32Z</time>
      </trkpt>
      <trkpt lat="47.54853" lon="7.62914">
        <ele>271.6</ele>
        <time>2011-06-26T16:24:51Z</time>
      </trkpt>
      <trkpt lat="47.54857" lon="7.62887">
        <ele>271.5</ele>
        <time>2011-06-26T16:25:10Z</time>
      </trkpt>
      <trkpt lat="47.5486" lon="7.62863">
        <ele>271.5</ele>
        <time>2011-06-26T16:25:25Z</time>
      </trkpt>
      <trkpt lat="47.54864" lon="7.62841">
        <ele>271.4</ele>
        <time>2011-06-26T16:25:38Z</time>
      </trkpt>
      <trkpt lat="47.54867" lon="7.62818">
        <ele>271.5</ele>
        <time>2011-06-26T16:25:51Z</time>
      </trkpt>
      <trkpt lat="47.54873" lon="7.62796">
        <ele>271.4</ele>
        <time>2011-06-26T16:26:07Z</time>
      </trkpt>
      <trkpt lat="47.54879" lon="7.62774">
        <ele>271.3</ele>
        <time>2011-06-26T16:26:22Z</time>
      </trkpt>
      <trkpt lat="47.54885" lon="7.62753">
        <ele>271.2</ele>
        <time>2011-06-26T16:26:38Z</time>
      </trkpt>
      <trkpt lat="47.54891" lon="7.62741">
        <ele>270.7</ele>
        <time>2011-06-26T16:26:47Z</time>
      </trkpt>
      <trkpt lat="47.54899" lon="7.6272">
        <ele>270.3</ele>
        <time>2011-06-26T16:27:04Z</time>
      </trkpt>
      <trkpt lat="47.54902" lon="7.62697">
        <ele>269.8</ele>
        <time>2011-06-26T16:27:21Z</time>
      </trkpt>
      <trkpt lat="47.54899" lon="7.62673">
        <ele>269.3</ele>
        <time>2011-06-26T16:27:39Z</time>
      </trkpt>
      <trkpt lat="47.54898" lon="7.6265">
        <ele>268.1</ele>
        <time>2011-06-26T16:28:01Z</time>
      </trkpt>
      <trkpt lat="47.54898" lon="7.62627">
        <ele>266.9</ele>
        <time>2011-06-26T16:28:21Z</time>
      </trkpt>
      <trkpt lat="47.54896" lon="7.62602">
        <ele>265.7</ele>
        <time>2011-06-26T16:28:37Z</time>
      </trkpt>
      <trkpt lat="47.54895" lon="7.62579">
        <ele>264.5</ele>
        <time>2011-06-26T16:28:59Z</time>
      </trkpt>
      <trkpt lat="47.5489" lon="7.62557">
        <ele>263.4</ele>
        <time>2011-06-26T16:29:14Z</time>
      </trkpt>
      <trkpt lat="47.54886" lon="7.62534">
        <ele>262.5</ele>
        <time>2011-06-26T16:29:27Z</time>
      </trkpt>
      <trkpt lat="47.54889" lon="7.62511">
        <ele>261.7</ele>
        <time>2011-06-26T16:29:46Z</time>
      </trkpt>
      <trkpt lat="47.54899" lon="7.62491">
        <ele>261.3</ele>
        <time>2011-06-26T16:30:13Z</time>
      </trkpt>
      <trkpt lat="47.54929" lon="7.62465">
        <ele>260.8</ele>
        <time>2011-06-26T16:30:45Z</time>
      </trkpt>
      <trkpt lat="47.54957" lon="7.62455">
        <ele>260.4</ele>
        <time>2011-06-26T16:31:14Z</time>
      </trkpt>
      <trkpt lat="47.55015" lon="7.62465">
        <ele>259.7</ele>
        <time>2011-06-26T16:32:01Z</time>
      </trkpt>
      <trkpt lat="47.55058" lon="7.62448">
        <ele>259.7</ele>
        <time>2011-06-26T16:32:57Z</time>
      </trkpt>
      <trkpt lat="47.55072" lon="7.62429">
        <ele>259.7</ele>
        <time>2011-06-26T16:33:18Z</time>
      </trkpt>
      <trkpt lat="47.55088" lon="7.62417">
        <ele>259.7</ele>
        <time>2011-06-26T16:33:41Z</time>
      </trkpt>
      <trkpt lat="47.55094" lon="7.62385">
        <ele>259.6</ele>
        <time>2011-06-26T16:34:10Z</time>
      </trkpt>
      <trkpt lat="47.55145" lon="7.62397">
        <ele>259.8</ele>
        <time>2011-06-26T16:35:11Z</time>
      </trkpt>
      <trkpt lat="47.55156" lon="7.62397">
        <ele>259.6</ele>
        <time>2011-06-26T16:35:13Z</time>
      </trkpt>
      <trkpt lat="47.55177" lon="7.62394">
        <ele>259.5</ele>
        <time>2011-06-26T16:35:44Z</time>
      </trkpt>
      <trkpt lat="47.55204" lon="7.62382">
        <ele>259</ele>
        <time>2011-06-26T16:36:29Z</time>
      </trkpt>
      <trkpt lat="47.5523" lon="7.62379">
        <ele>258.6</ele>
        <time>2011-06-26T16:36:51Z</time>
      </trkpt>
      <trkpt lat="47.55251" lon="7.62367">
        <ele>258.1</ele>
        <time>2011-06-26T16:37:38Z</time>
      </trkpt>
      <trkpt lat="47.55274" lon="7.62358">
        <ele>257.7</ele>
        <time>2011-06-26T16:39:05Z</time>
      </trkpt>
      <trkpt lat="47.55285" lon="7.62336">
        <ele>257.4</ele>
        <time>2011-06-26T16:40:23Z</time>
      </trkpt>
      <trkpt lat="47.55304" lon="7.6228">
        <ele>257</ele>
        <time>2011-06-26T16:41:09Z</time>
      </trkpt>
      <trkpt lat="47.55292" lon="7.62219">
        <ele>256.4</ele>
        <time>2011-06-26T16:41:40Z</time>
      </trkpt>
      <trkpt lat="47.55274" lon="7.62188">
        <ele>255.8</ele>
        <time>2011-06-26T16:42:23Z</time>
      </trkpt>
      <trkpt lat="47.55241" lon="7.6216">
        <ele>255.5</ele>
        <time>2011-06-26T16:43:01Z</time>
      </trkpt>
      <trkpt lat="47.55225" lon="7.62156">
        <ele>255.1</ele>
        <time>2011-06-26T16:43:31Z</time>
      </trkpt>
      <trkpt lat="47.55215" lon="7.62139">
        <ele>254.7</ele>
        <time>2011-06-26T16:44:02Z</time>
      </trkpt>
      <trkpt lat="47.552" lon="7.62125">
        <ele>254.6</ele>
        <time>2011-06-26T16:44:23Z</time>
      </trkpt>
      <trkpt lat="47.55198" lon="7.62102">
        <ele>254.2</ele>
        <time>2011-06-26T16:44:43Z</time>
      </trkpt>
      <trkpt lat="47.55213" lon="7.62094">
        <ele>253.9</ele>
        <time>2011-06-26T16:45:17Z</time>
      </trkpt>
      <trkpt lat="47.55229" lon="7.62088">
        <ele>253.6</ele>
        <time>2011-06-26T16:45:37Z</time>
      </trkpt>
      <trkpt lat="47.5524" lon="7.62072">
        <ele>253.4</ele>
        <time>2011-06-26T16:45:53Z</time>
      </trkpt>
      <trkpt lat="47.55248" lon="7.62052">
        <ele>253.1</ele>
        <time>2011-06-26T16:46:08Z</time>
      </trkpt>
      <trkpt lat="47.55261" lon="7.62023">
        <ele>253.1</ele>
        <time>2011-06-26T16:46:27Z</time>
      </trkpt>
      <trkpt lat="47.55272" lon="7.62008">
        <ele>253.1</ele>
        <time>2011-06-26T16:46:52Z</time>
      </trkpt>
      <trkpt lat="47.55282" lon="7.61988">
        <ele>252.8</ele>
        <time>2011-06-26T16:47:10Z</time>
      </trkpt>
      <trkpt lat="47.55291" lon="7.61967">
        <ele>252.5</ele>
        <time>2011-06-26T16:47:28Z</time>
      </trkpt>
      <trkpt lat="47.55303" lon="7.61948">
        <ele>252.1</ele>
        <time>2011-06-26T16:48:09Z</time>
      </trkpt>
      <trkpt lat="47.55308" lon="7.61937">
        <ele>251.7</ele>
        <time>2011-06-26T16:48:18Z</time>
      </trkpt>
      <trkpt lat="47.55318" lon="7.61917">
        <ele>251.6</ele>
        <time>2011-06-26T16:48:35Z</time>
      </trkpt>
      <trkpt lat="47.55326" lon="7.61897">
        <ele>251.8</ele>
        <time>2011-06-26T16:48:50Z</time>
      </trkpt>
      <trkpt lat="47.55331" lon="7.61875">
        <ele>251.7</ele>
        <time>2011-06-26T16:49:03Z</time>
      </trkpt>
      <trkpt lat="47.55341" lon="7.61857">
        <ele>251.6</ele>
        <time>2011-06-26T16:49:19Z</time>
      </trkpt>
      <trkpt lat="47.55353" lon="7.61841">
        <ele>251.5</ele>
        <time>2011-06-26T16:49:37Z</time>
      </trkpt>
      <trkpt lat="47.55366" lon="7.61824">
        <ele>251.5</ele>
        <time>2011-06-26T16:49:55Z</time>
      </trkpt>
      <trkpt lat="47.55381" lon="7.61812">
        <ele>251.4</ele>
        <time>2011-06-26T16:50:13Z</time>
      </trkpt>
      <trkpt lat="47.55388" lon="7.61792">
        <ele>251.3</ele>
        <time>2011-06-26T16:50:30Z</time>
      </trkpt>
      <trkpt lat="47.55406" lon="7.61772">
        <ele>251.5</ele>
        <time>2011-06-26T16:51:01Z</time>
      </trkpt>
      <trkpt lat="47.55422" lon="7.61774">
        <ele>251.8</ele>
        <time>2011-06-26T16:51:32Z</time>
      </trkpt>
      <trkpt lat="47.55413" lon="7.61765">
        <ele>252.1</ele>
        <time>2011-06-26T16:52:28Z</time>
      </trkpt>
      <trkpt lat="47.55406" lon="7.61743">
        <ele>252.8</ele>
        <time>2011-06-26T16:53:00Z</time>
      </trkpt>
      <trkpt lat="47.55414" lon="7.61723">
        <ele>253.4</ele>
        <time>2011-06-26T16:53:35Z</time>
      </trkpt>
      <trkpt lat="47.55413" lon="7.61709">
        <ele>254.2</ele>
        <time>2011-06-26T16:53:46Z</time>
      </trkpt>
      <trkpt lat="47.55443" lon="7.61696">
        <ele>255</ele>
        <time>2011-06-26T16:54:46Z</time>
      </trkpt>
      <trkpt lat="47.55499" lon="7.61674">
        <ele>255.3</ele>
        <time>2011-06-26T16:56:18Z</time>
      </trkpt>
      <trkpt lat="47.55539" lon="7.6163">
        <ele>255.5</ele>
        <time>2011-06-26T16:56:55Z</time>
      </trkpt>
      <trkpt lat="47.55537" lon="7.61524">
        <ele>255.8</ele>
        <time>2011-06-26T16:58:17Z</time>
      </trkpt>
      <trkpt lat="47.55522" lon="7.61527">
        <ele>256.6</ele>
        <time>2011-06-26T16:58:37Z</time>
      </trkpt>
      <trkpt lat="47.55539" lon="7.61514">
        <ele>257</ele>
        <time>2011-06-26T16:59:23Z</time>
      </trkpt>
      <trkpt lat="47.55553" lon="7.61506">
        <ele>257.4</ele>
        <time>2011-06-26T16:59:30Z</time>
      </trkpt>
      <trkpt lat="47.55562" lon="7.61486">
        <ele>257.7</ele>
        <time>2011-06-26T16:59:44Z</time>
      </trkpt>
      <trkpt lat="47.55562" lon="7.61472">
        <ele>257.5</ele>
        <time>2011-06-26T17:00:01Z</time>
      </trkpt>
      <trkpt lat="47.55547" lon="7.61463">
        <ele>257.3</ele>
        <time>2011-06-26T17:00:39Z</time>
      </trkpt>
      <trkpt lat="47.5554" lon="7.61454">
        <ele>257</ele>
        <time>2011-06-26T17:01:00Z</time>
      </trkpt>
      <trkpt lat="47.5554" lon="7.61407">
        <ele>256.7</ele>
        <time>2011-06-26T17:01:35Z</time>
      </trkpt>
      <trkpt lat="47.55531" lon="7.61383">
        <ele>257</ele>
        <time>2011-06-26T17:01:48Z</time>
      </trkpt>
      <trkpt lat="47.55526" lon="7.6136">
        <ele>257.3</ele>
        <time>2011-06-26T17:02:12Z</time>
      </trkpt>
      <trkpt lat="47.5553" lon="7.61336">
        <ele>257.5</ele>
        <time>2011-06-26T17:02:28Z</time>
      </trkpt>
      <trkpt lat="47.55524" lon="7.61314">
        <ele>257.3</ele>
        <time>2011-06-26T17:02:49Z</time>
      </trkpt>
      <trkpt lat="47.55521" lon="7.61292">
        <ele>257.2</ele>
        <time>2011-06-26T17:03:13Z</time>
      </trkpt>
      <trkpt lat="47.55504" lon="7.6125">
        <ele>257.1</ele>
        <time>2011-06-26T17:03:43Z</time>
      </trkpt>
      <trkpt lat="47.55489" lon="7.61227">
        <ele>257</ele>
        <time>2011-06-26T17:04:14Z</time>
      </trkpt>
      <trkpt lat="47.5547" lon="7.61208">
        <ele>257</ele>
        <time>2011-06-26T17:04:49Z</time>
      </trkpt>
      <trkpt lat="47.55465" lon="7.6118">
        <ele>257</ele>
        <time>2011-06-26T17:05:03Z</time>
      </trkpt>
      <trkpt lat="47.55468" lon="7.61153">
        <ele>257</ele>
        <time>2011-06-26T17:05:24Z</time>
      </trkpt>
      <trkpt lat="47.55471" lon="7.6114">
        <ele>257</ele>
        <time>2011-06-26T17:05:33Z</time>
      </trkpt>
      <trkpt lat="47.55472" lon="7.6113">
        <ele>257</ele>
        <time>2011-06-26T17:05:56Z</time>
      </trkpt>
      <trkpt lat="47.55472" lon="7.6113">
        <ele>257</ele>
        <time>2011-06-26T17:47:46Z</time>
      </trkpt>
      <trkpt lat="47.55472" lon="7.6113">
        <ele>257</ele>
        <time>2011-06-26T17:47:46Z</time>
      </trkpt>
      <trkpt lat="47.55406" lon="7.60975">
        <ele>263.3</ele>
        <time>2011-06-26T17:52:27Z</time>
      </trkpt>
      <trkpt lat="47.55403" lon="7.60961">
        <ele>263.6</ele>
        <time>2011-06-26T17:53:00Z</time>
      </trkpt>
      <trkpt lat="47.55405" lon="7.60936">
        <ele>263.8</ele>
        <time>2011-06-26T17:53:33Z</time>
      </trkpt>
      <trkpt lat="47.55381" lon="7.60919">
        <ele>263.9</ele>
        <time>2011-06-26T17:54:19Z</time>
      </trkpt>
      <trkpt lat="47.55371" lon="7.60896">
        <ele>264</ele>
        <time>2011-06-26T17:54:41Z</time>
      </trkpt>
      <trkpt lat="47.5537" lon="7.60869">
        <ele>264.7</ele>
        <time>2011-06-26T17:55:13Z</time>
      </trkpt>
      <trkpt lat="47.55354" lon="7.60858">
        <ele>265.6</ele>
        <time>2011-06-26T17:55:39Z</time>
      </trkpt>
      <trkpt lat="47.5533" lon="7.60871">
        <ele>266.6</ele>
        <time>2011-06-26T17:56:51Z</time>
      </trkpt>
      <trkpt lat="47.55315" lon="7.60864">
        <ele>267.6</ele>
        <time>2011-06-26T17:57:10Z</time>
      </trkpt>
      <trkpt lat="47.55298" lon="7.60857">
        <ele>268.8</ele>
        <time>2011-06-26T17:57:32Z</time>
      </trkpt>
      <trkpt lat="47.55288" lon="7.60854">
        <ele>269</ele>
        <time>2011-06-26T17:57:43Z</time>
      </trkpt>
      <trkpt lat="47.55266" lon="7.60857">
        <ele>269.6</ele>
        <time>2011-06-26T17:58:31Z</time>
      </trkpt>
      <trkpt lat="47.55249" lon="7.60854">
        <ele>270.3</ele>
        <time>2011-06-26T17:58:52Z</time>
      </trkpt>
      <trkpt lat="47.55212" lon="7.60853">
        <ele>270.9</ele>
        <time>2011-06-26T17:59:20Z</time>
      </trkpt>
      <trkpt lat="47.552" lon="7.60868">
        <ele>271.5</ele>
        <time>2011-06-26T17:59:40Z</time>
      </trkpt>
      <trkpt lat="47.55195" lon="7.60894">
        <ele>272.2</ele>
        <time>2011-06-26T17:59:59Z</time>
      </trkpt>
      <trkpt lat="47.55194" lon="7.60918">
        <ele>272.2</ele>
        <time>2011-06-26T18:00:22Z</time>
      </trkpt>
      <trkpt lat="47.55186" lon="7.6095">
        <ele>271.9</ele>
        <time>2011-06-26T18:00:47Z</time>
      </trkpt>
      <trkpt lat="47.55179" lon="7.60971">
        <ele>271.6</ele>
        <time>2011-06-26T18:01:04Z</time>
      </trkpt>
      <trkpt lat="47.55177" lon="7.60994">
        <ele>271.4</ele>
        <time>2011-06-26T18:01:16Z</time>
      </trkpt>
      <trkpt lat="47.55176" lon="7.61018">
        <ele>271.2</ele>
        <time>2011-06-26T18:01:39Z</time>
      </trkpt>
      <trkpt lat="47.55169" lon="7.61039">
        <ele>271.2</ele>
        <time>2011-06-26T18:02:07Z</time>
      </trkpt>
      <trkpt lat="47.5516" lon="7.61076">
        <ele>271.2</ele>
        <time>2011-06-26T18:02:30Z</time>
      </trkpt>
      <trkpt lat="47.55151" lon="7.61095">
        <ele>271.2</ele>
        <time>2011-06-26T18:03:00Z</time>
      </trkpt>
      <trkpt lat="47.55133" lon="7.61096">
        <ele>271.2</ele>
        <time>2011-06-26T18:03:19Z</time>
      </trkpt>
      <trkpt lat="47.55117" lon="7.61091">
        <ele>271.4</ele>
        <time>2011-06-26T18:03:34Z</time>
      </trkpt>
      <trkpt lat="47.55097" lon="7.61071">
        <ele>271.5</ele>
        <time>2011-06-26T18:04:01Z</time>
      </trkpt>
      <trkpt lat="47.55083" lon="7.61061">
        <ele>271.7</ele>
        <time>2011-06-26T18:04:17Z</time>
      </trkpt>
      <trkpt lat="47.55071" lon="7.61056">
        <ele>272.2</ele>
        <time>2011-06-26T18:04:30Z</time>
      </trkpt>
      <trkpt lat="47.55054" lon="7.61049">
        <ele>272.6</ele>
        <time>2011-06-26T18:04:50Z</time>
      </trkpt>
      <trkpt lat="47.55038" lon="7.6104">
        <ele>273.1</ele>
        <time>2011-06-26T18:05:09Z</time>
      </trkpt>
      <trkpt lat="47.55027" lon="7.61038">
        <ele>273.3</ele>
        <time>2011-06-26T18:05:25Z</time>
      </trkpt>
      <trkpt lat="47.55" lon="7.61027">
        <ele>273.4</ele>
        <time>2011-06-26T18:05:53Z</time>
      </trkpt>
      <trkpt lat="47.54991" lon="7.61022">
        <ele>273.6</ele>
        <time>2011-06-26T18:05:58Z</time>
      </trkpt>
      <trkpt lat="47.54975" lon="7.61011">
        <ele>273.8</ele>
        <time>2011-06-26T18:06:19Z</time>
      </trkpt>
      <trkpt lat="47.54964" lon="7.60993">
        <ele>274</ele>
        <time>2011-06-26T18:06:36Z</time>
      </trkpt>
      <trkpt lat="47.54964" lon="7.60993">
        <ele>274</ele>
        <time>2011-06-26T18:06:36Z</time>
      </trkpt>
    </trkseg>
  </trk>
</gpx>